KOCH/OCH METAR and TAF weather

Enter ICAO airport designator
Station Type Date Time Source
KOCH METAR 2021/09/24 01:56 UTC NOAA

KOCH 240156Z AUTO 00000KT 10SM CLR 18/11 A3006 RMK AO2 SLP181 T01780106


Station Type Date Time Source
KOCH Decoded METAR 2021/09/24 01:56 UTC NOAA

Nacogdoches, A L Mangham Jr. Regional Airport, TX, United States (KOCH) 31-35N 094-43W
Sep 23, 2021 - 09:56 PM EDT / 2021.09.24 0156 UTC
Wind: Calm:0
Visibility: 10 mile(s):0
Sky conditions: clear
Temperature: 64.0 F (17.8 C)
Dew Point: 51.1 F (10.6 C)
Relative Humidity: 62%
Pressure (altimeter): 30.06 in. Hg (1017 hPa)
ob: KOCH 240156Z AUTO 00000KT 10SM CLR 18/11 A3006 RMK AO2 SLP181 T01780106
cycle: 2

Station Type Date Time Source
KOCH TAF UTC NOAA

Error!

Example: see airport list